createdAt,value
2024-01-11T00:00:50.430Z,28.40
2024-01-11T00:01:50.484Z,27.90
2024-01-11T00:02:51.240Z,28.50
2024-01-11T00:03:51.111Z,27.80
2024-01-11T00:04:51.518Z,27.80
2024-01-11T00:05:51.882Z,27.30
2024-01-11T00:06:51.910Z,28.20
2024-01-11T00:07:52.313Z,28.20
2024-01-11T00:08:52.472Z,28.20
2024-01-11T00:09:53.751Z,28.50
2024-01-11T00:10:53.070Z,28.10
2024-01-11T00:11:53.307Z,28.20
2024-01-11T00:12:53.601Z,26.70
2024-01-11T00:13:53.895Z,27.40
2024-01-11T00:14:54.430Z,27.90
2024-01-11T00:15:55.544Z,27.40
2024-01-11T00:16:54.824Z,27.00
2024-01-11T00:17:55.228Z,27.30
2024-01-11T00:18:55.506Z,26.70
2024-01-11T00:19:55.678Z,27.20
2024-01-11T00:20:56.061Z,28.30
2024-01-11T00:21:56.324Z,27.90
2024-01-11T00:22:56.605Z,27.90
2024-01-11T00:23:56.835Z,27.40
2024-01-11T00:24:57.120Z,28.60
2024-01-11T00:25:57.433Z,28.00
2024-01-11T00:26:57.645Z,28.00
2024-01-11T00:27:57.935Z,28.60
2024-01-11T00:28:58.224Z,28.40
2024-01-11T00:29:58.449Z,28.30
2024-01-11T00:30:58.874Z,27.90
2024-01-11T00:31:59.057Z,27.50
2024-01-11T00:32:59.399Z,28.40
2024-01-11T00:34:00.130Z,27.70
2024-01-11T00:34:59.876Z,27.50
2024-01-11T00:36:00.130Z,27.10
2024-01-11T00:37:00.405Z,27.00
2024-01-11T00:38:00.732Z,27.10
2024-01-11T00:39:01.072Z,27.20
2024-01-11T00:40:01.282Z,27.60
2024-01-11T00:41:01.804Z,26.80
2024-01-11T00:42:01.954Z,26.40
2024-01-11T00:43:02.127Z,26.70
2024-01-11T00:44:02.467Z,27.30
2024-01-11T00:45:02.877Z,26.90
2024-01-11T00:46:03.164Z,26.80
2024-01-11T00:47:03.434Z,25.50
2024-01-11T00:48:03.676Z,26.90
2024-01-11T00:49:03.897Z,26.40
2024-01-11T00:50:04.212Z,26.30
2024-01-11T00:51:04.409Z,26.60
2024-01-11T00:52:04.760Z,27.10
2024-01-11T00:53:07.518Z,26.20
2024-01-11T00:54:05.164Z,26.20
2024-01-11T00:55:05.590Z,27.50
2024-01-11T00:56:05.775Z,26.10
2024-01-11T00:57:06.101Z,25.80
2024-01-11T00:58:06.380Z,26.40
2024-01-11T00:59:06.699Z,26.00
2024-01-11T01:00:06.816Z,27.30
2024-01-11T01:01:07.135Z,26.30
2024-01-11T01:02:07.471Z,26.60
2024-01-11T01:03:07.822Z,26.30
2024-01-11T01:04:08.071Z,25.50
2024-01-11T01:05:08.385Z,26.00
2024-01-11T01:06:08.726Z,26.60
2024-01-11T01:07:08.883Z,25.30
2024-01-11T01:08:09.115Z,25.40
2024-01-11T01:09:09.459Z,25.00
2024-01-11T01:10:09.629Z,26.60
2024-01-11T01:11:09.995Z,25.80
2024-01-11T01:12:10.218Z,26.00
2024-01-11T01:13:10.507Z,26.00
2024-01-11T01:14:10.795Z,25.70
2024-01-11T01:15:11.113Z,26.30
2024-01-11T01:16:11.385Z,25.20
2024-01-11T01:17:12.960Z,25.80
2024-01-11T01:18:12.048Z,25.80
2024-01-11T01:19:12.250Z,26.30
2024-01-11T01:20:12.565Z,25.80
2024-01-11T01:21:12.829Z,26.30
2024-01-11T01:22:13.142Z,25.50
2024-01-11T01:23:13.468Z,25.90
2024-01-11T01:24:13.708Z,25.70
2024-01-11T01:25:14.075Z,25.20
2024-01-11T01:26:15.322Z,25.60
2024-01-11T01:27:15.529Z,25.00
2024-01-11T01:28:14.897Z,25.30
2024-01-11T01:29:15.276Z,25.20
2024-01-11T01:30:15.558Z,25.50
2024-01-11T01:31:15.890Z,25.30
2024-01-11T01:32:16.276Z,25.90
2024-01-11T01:33:16.573Z,25.40
2024-01-11T01:34:16.839Z,26.50
2024-01-11T01:35:17.050Z,25.30
2024-01-11T01:36:17.184Z,25.20
2024-01-11T01:37:17.500Z,25.50
2024-01-11T01:38:17.763Z,25.10
2024-01-11T01:39:18.090Z,25.50
2024-01-11T01:40:18.314Z,25.80
2024-01-11T01:41:18.598Z,25.00
2024-01-11T01:42:18.845Z,24.50
2024-01-11T01:43:19.061Z,25.30
2024-01-11T01:44:19.424Z,25.10
2024-01-11T01:45:19.568Z,25.30
2024-01-11T01:46:19.812Z,26.40
2024-01-11T01:47:20.227Z,26.10
2024-01-11T01:48:20.470Z,26.20
2024-01-11T01:49:20.654Z,26.00
2024-01-11T01:50:20.927Z,26.60
2024-01-11T01:51:21.081Z,26.40
2024-01-11T01:52:21.448Z,26.90
2024-01-11T01:53:21.820Z,26.20
2024-01-11T01:54:21.939Z,26.20
2024-01-11T01:55:22.250Z,26.20
2024-01-11T01:56:22.593Z,26.30
2024-01-11T01:57:22.790Z,27.10
2024-01-11T01:58:23.043Z,27.00
2024-01-11T01:59:23.445Z,26.70
2024-01-11T02:00:23.659Z,26.90
2024-01-11T02:01:25.926Z,27.10
2024-01-11T02:02:25.143Z,27.90
2024-01-11T02:03:24.566Z,26.80
2024-01-11T02:04:24.861Z,26.80
2024-01-11T02:05:25.106Z,26.80
2024-01-11T02:06:25.396Z,26.60
2024-01-11T02:07:25.676Z,26.90
2024-01-11T02:08:26.076Z,26.80
2024-01-11T02:09:26.324Z,27.40
2024-01-11T02:10:26.619Z,27.40
2024-01-11T02:11:26.946Z,26.80
2024-01-11T02:12:27.225Z,27.20
2024-01-11T02:13:27.461Z,26.80
2024-01-11T02:14:27.762Z,26.60
2024-01-11T02:15:27.976Z,27.30
2024-01-11T02:16:28.294Z,27.30
2024-01-11T02:17:28.719Z,27.20
2024-01-11T02:18:28.998Z,27.70
2024-01-11T02:19:29.238Z,26.60
2024-01-11T02:20:29.485Z,28.30
2024-01-11T02:21:29.774Z,26.90
2024-01-11T02:22:30.112Z,27.40
2024-01-11T02:23:30.359Z,27.10
2024-01-11T02:24:30.586Z,28.00
2024-01-11T02:25:30.860Z,27.80
2024-01-11T02:26:31.197Z,27.20
2024-01-11T02:27:31.493Z,27.70
2024-01-11T02:28:31.708Z,28.20
2024-01-11T02:29:32.134Z,28.40
2024-01-11T02:30:32.283Z,28.40
2024-01-11T02:31:32.646Z,28.30
2024-01-11T02:32:32.984Z,28.60
2024-01-11T02:33:33.289Z,28.40
2024-01-11T02:34:33.478Z,28.50
2024-01-11T02:35:33.842Z,28.20
2024-01-11T02:36:33.948Z,27.30
2024-01-11T02:37:34.284Z,27.70
2024-01-11T02:38:34.579Z,28.20
2024-01-11T02:39:34.814Z,28.20
2024-01-11T02:40:35.059Z,27.40
2024-01-11T02:41:35.462Z,27.90
2024-01-11T02:42:35.659Z,28.40
2024-01-11T02:43:35.973Z,28.50
2024-01-11T02:44:36.271Z,28.20
2024-01-11T02:45:36.533Z,28.40
2024-01-11T02:46:36.803Z,28.60
2024-01-11T02:47:37.191Z,28.30
2024-01-11T02:48:37.403Z,28.60
2024-01-11T02:49:37.742Z,28.60
2024-01-11T02:50:37.844Z,27.90
2024-01-11T02:51:38.163Z,28.30
2024-01-11T02:52:38.378Z,27.90
2024-01-11T02:53:38.852Z,27.20
2024-01-11T02:54:38.997Z,27.80
2024-01-11T02:55:39.212Z,29.30
2024-01-11T02:56:39.543Z,28.90
2024-01-11T02:57:39.769Z,28.90
2024-01-11T02:58:40.045Z,28.50
2024-01-11T02:59:40.421Z,28.60
2024-01-11T03:00:40.637Z,28.50
2024-01-11T03:01:40.969Z,27.70
2024-01-11T03:02:41.268Z,28.10
2024-01-11T03:03:41.527Z,28.10
2024-01-11T03:04:41.656Z,28.90
2024-01-11T03:05:42.117Z,29.00
2024-01-11T03:06:42.326Z,28.40
2024-01-11T03:07:42.492Z,29.20
2024-01-11T03:08:42.818Z,28.80
2024-01-11T03:09:43.024Z,29.40
2024-01-11T03:10:43.343Z,29.30
2024-01-11T03:11:43.662Z,29.30
2024-01-11T03:12:43.872Z,29.40
2024-01-11T03:13:44.152Z,29.00
2024-01-11T03:14:44.532Z,30.30
2024-01-11T03:15:44.821Z,28.90
2024-01-11T03:16:45.074Z,30.30
2024-01-11T03:17:45.454Z,29.60
2024-01-11T03:18:45.683Z,29.30
2024-01-11T03:19:45.975Z,29.70
2024-01-11T03:20:46.376Z,29.90
2024-01-11T03:21:46.571Z,29.80
2024-01-11T03:22:46.915Z,30.70
2024-01-11T03:23:47.612Z,30.00
2024-01-11T03:24:47.491Z,29.90
2024-01-11T03:25:47.763Z,28.90
2024-01-11T03:26:48.134Z,30.10
2024-01-11T03:27:48.284Z,28.90
2024-01-11T03:28:48.641Z,29.30
2024-01-11T03:29:48.998Z,30.30
2024-01-11T03:30:49.261Z,28.80
2024-01-11T03:31:49.482Z,29.10
2024-01-11T03:32:49.929Z,30.00
2024-01-11T03:33:50.165Z,29.70
2024-01-11T03:34:50.263Z,29.60
2024-01-11T03:35:50.560Z,29.80
2024-01-11T03:36:50.779Z,29.10
2024-01-11T03:37:51.020Z,29.30
2024-01-11T03:38:52.535Z,29.60
2024-01-11T03:39:51.526Z,28.90
2024-01-11T03:40:51.849Z,29.50
2024-01-11T03:41:52.225Z,29.20
2024-01-11T03:42:52.380Z,28.60
2024-01-11T03:43:52.638Z,29.30
2024-01-11T03:44:52.872Z,27.90
2024-01-11T03:45:53.155Z,28.80
2024-01-11T03:46:53.603Z,28.60
2024-01-11T03:47:53.854Z,28.80
2024-01-11T03:48:54.114Z,29.60
2024-01-11T03:49:54.317Z,28.60
2024-01-11T03:50:54.489Z,29.20
2024-01-11T03:51:54.818Z,30.60
2024-01-11T03:52:55.086Z,30.40
2024-01-11T03:53:55.478Z,31.70
2024-01-11T03:54:55.621Z,31.30
2024-01-11T03:55:55.930Z,31.20
2024-01-11T03:56:56.588Z,31.50
2024-01-11T03:57:56.618Z,31.20
2024-01-11T03:58:56.696Z,31.70
2024-01-11T03:59:57.130Z,31.30
2024-01-11T04:00:57.454Z,31.00
2024-01-11T04:01:57.749Z,31.60
2024-01-11T04:02:58.085Z,30.90
2024-01-11T04:03:58.422Z,30.90
2024-01-11T04:04:58.757Z,31.90
2024-01-11T04:05:58.950Z,30.90
2024-01-11T04:06:59.236Z,31.70
2024-01-11T04:07:59.646Z,31.60
2024-01-11T04:08:59.864Z,32.00
2024-01-11T04:10:00.237Z,32.20
2024-01-11T04:11:00.409Z,31.60
2024-01-11T04:12:00.685Z,31.20
2024-01-11T04:13:00.928Z,31.40
2024-01-11T04:14:01.283Z,31.30
2024-01-11T04:15:02.059Z,31.40
2024-01-11T04:16:01.903Z,31.10
2024-01-11T04:17:02.166Z,32.20
2024-01-11T04:18:02.663Z,31.10
2024-01-11T04:19:02.752Z,31.70
2024-01-11T04:20:03.414Z,32.30
2024-01-11T04:21:03.219Z,32.10
2024-01-11T04:22:03.520Z,32.00
2024-01-11T04:23:03.842Z,32.20
2024-01-11T04:24:04.151Z,31.90
2024-01-11T04:25:04.432Z,32.20
2024-01-11T04:26:04.740Z,30.60
2024-01-11T04:27:04.914Z,31.30
2024-01-11T04:28:05.174Z,31.50
2024-01-11T04:29:05.487Z,31.70
2024-01-11T04:30:05.763Z,31.00
2024-01-11T04:31:06.006Z,31.00
2024-01-11T04:32:06.351Z,30.70
2024-01-11T04:33:06.888Z,30.70
2024-01-11T04:34:06.927Z,31.80
2024-01-11T04:35:07.171Z,31.00
2024-01-11T04:36:07.477Z,31.70
2024-01-11T04:37:07.664Z,31.30
2024-01-11T04:38:08.057Z,33.40
2024-01-11T04:39:08.185Z,31.20
2024-01-11T04:40:08.502Z,31.80
2024-01-11T04:41:08.643Z,31.70
2024-01-11T04:42:08.947Z,31.40
2024-01-11T04:43:09.211Z,31.00
2024-01-11T04:44:09.533Z,32.10
2024-01-11T04:45:09.686Z,32.10
2024-01-11T04:46:10.113Z,32.00
2024-01-11T04:47:10.331Z,31.90
2024-01-11T04:48:10.763Z,32.10
2024-01-11T04:49:10.968Z,31.70
2024-01-11T04:50:11.202Z,31.50
2024-01-11T04:51:11.337Z,31.70
2024-01-11T04:52:11.630Z,32.20
2024-01-11T04:53:11.886Z,32.70
2024-01-11T04:54:12.167Z,33.20
2024-01-11T04:55:12.476Z,32.40
2024-01-11T04:56:12.760Z,31.70
2024-01-11T04:57:12.920Z,32.00
2024-01-11T04:58:13.252Z,31.60
2024-01-11T04:59:13.577Z,31.50
2024-01-11T05:00:13.763Z,31.90
2024-01-11T05:01:13.996Z,31.70
2024-01-11T05:02:14.319Z,31.50
2024-01-11T05:03:14.607Z,32.30
2024-01-11T05:04:14.925Z,32.10
2024-01-11T05:05:15.171Z,32.70
2024-01-11T05:06:15.423Z,32.10
2024-01-11T05:07:15.697Z,32.40
2024-01-11T05:08:16.078Z,31.20
2024-01-11T05:09:16.268Z,31.60
2024-01-11T05:10:16.521Z,31.60
2024-01-11T05:11:16.774Z,32.40
2024-01-11T05:12:17.067Z,32.50
2024-01-11T05:13:17.248Z,31.50
2024-01-11T05:14:17.642Z,31.50
2024-01-11T05:15:17.793Z,32.00
2024-01-11T05:16:18.095Z,31.00
2024-01-11T05:17:18.381Z,32.20
2024-01-11T05:18:18.790Z,32.00
2024-01-11T05:19:19.173Z,32.30
2024-01-11T05:20:19.354Z,31.90
2024-01-11T05:21:19.577Z,31.40
2024-01-11T05:22:19.794Z,31.10
2024-01-11T05:23:20.116Z,31.70
2024-01-11T05:24:20.368Z,31.80
2024-01-11T05:25:20.623Z,31.90
2024-01-11T05:26:21.076Z,32.00
2024-01-11T05:27:21.150Z,32.80
2024-01-11T05:28:21.402Z,31.20
2024-01-11T05:29:21.674Z,31.30
2024-01-11T05:30:22.016Z,32.40
2024-01-11T05:31:22.248Z,32.40
2024-01-11T05:32:22.512Z,31.90
2024-01-11T05:33:22.732Z,33.20
2024-01-11T05:34:23.129Z,33.20
2024-01-11T05:35:23.306Z,33.10
2024-01-11T05:36:23.479Z,33.30
2024-01-11T05:37:23.792Z,33.20
2024-01-11T05:38:24.052Z,34.00
2024-01-11T05:39:24.351Z,33.70
2024-01-11T05:40:24.631Z,32.10
2024-01-11T05:41:24.935Z,31.80
2024-01-11T05:42:25.136Z,31.80
2024-01-11T05:43:25.373Z,32.00
2024-01-11T05:44:25.746Z,32.20
2024-01-11T05:45:32.080Z,32.60
2024-01-11T05:46:27.293Z,33.60
2024-01-11T05:47:26.635Z,33.70
2024-01-11T05:48:26.979Z,32.10
2024-01-11T05:49:27.210Z,32.10
2024-01-11T05:50:27.559Z,32.90
2024-01-11T05:51:28.352Z,33.60
2024-01-11T05:52:28.218Z,33.40
2024-01-11T05:53:28.628Z,33.20
2024-01-11T05:54:28.791Z,33.40
2024-01-11T05:55:28.988Z,33.60
2024-01-11T05:56:29.812Z,32.60
2024-01-11T05:57:29.541Z,33.50
2024-01-11T05:58:29.897Z,32.80
2024-01-11T05:59:30.145Z,33.10
2024-01-11T06:00:30.518Z,33.20
2024-01-11T06:01:30.862Z,33.50
2024-01-11T06:02:31.274Z,32.50
2024-01-11T06:03:31.563Z,33.00
2024-01-11T06:04:31.719Z,33.00
2024-01-11T06:05:32.112Z,32.70
2024-01-11T06:06:32.533Z,32.90
2024-01-11T06:07:32.696Z,32.40
2024-01-11T06:08:32.953Z,32.40
2024-01-11T06:09:33.266Z,32.80
2024-01-11T06:10:33.490Z,33.00
2024-01-11T06:11:33.924Z,32.70
2024-01-11T06:12:34.027Z,33.40
2024-01-11T06:13:34.308Z,32.50
2024-01-11T06:14:34.656Z,32.10
2024-01-11T06:15:34.904Z,32.00
2024-01-11T06:16:35.234Z,33.00
2024-01-11T06:17:35.663Z,31.60
2024-01-11T06:18:35.821Z,32.60
2024-01-11T06:19:36.169Z,33.50
2024-01-11T06:20:36.339Z,34.60
2024-01-11T06:21:36.568Z,32.30
2024-01-11T06:22:36.862Z,33.00
2024-01-11T06:23:37.146Z,33.30
2024-01-11T06:24:37.439Z,33.20
2024-01-11T06:25:37.669Z,34.10
2024-01-11T06:26:38.137Z,33.50
2024-01-11T06:27:38.194Z,34.00
2024-01-11T06:28:38.621Z,32.90
2024-01-11T06:29:38.957Z,33.40
2024-01-11T06:30:39.289Z,33.50
2024-01-11T06:31:39.483Z,32.50
2024-01-11T06:32:39.944Z,32.80
2024-01-11T06:33:40.077Z,33.10
2024-01-11T06:34:40.369Z,34.60
2024-01-11T06:35:40.592Z,34.20
2024-01-11T06:36:41.006Z,34.60
2024-01-11T06:37:41.085Z,33.10
2024-01-11T06:38:41.551Z,34.20
2024-01-11T06:39:41.691Z,33.70
2024-01-11T06:40:42.022Z,33.40
2024-01-11T06:41:42.321Z,33.20
2024-01-11T06:42:42.811Z,34.10
2024-01-11T06:43:42.937Z,33.40
2024-01-11T06:44:43.255Z,34.70
2024-01-11T06:45:43.472Z,34.10
2024-01-11T06:46:43.764Z,34.80
2024-01-11T06:47:44.131Z,34.90
2024-01-11T06:48:44.347Z,36.90
2024-01-11T06:49:44.610Z,35.70
2024-01-11T06:50:44.833Z,34.90
2024-01-11T06:51:45.013Z,33.40
2024-01-11T06:52:45.413Z,34.50
2024-01-11T06:53:45.737Z,33.70
2024-01-11T06:54:46.033Z,34.10
2024-01-11T06:55:46.326Z,34.40
2024-01-11T06:56:46.752Z,35.40
2024-01-11T06:57:47.898Z,34.90
2024-01-11T06:58:47.249Z,35.10
2024-01-11T06:59:47.670Z,34.80
2024-01-11T07:00:47.877Z,34.30
2024-01-11T07:01:48.008Z,35.10
2024-01-11T07:02:48.477Z,35.30
2024-01-11T07:03:48.666Z,35.80
2024-01-11T07:04:49.040Z,36.70
2024-01-11T07:05:49.428Z,36.40
2024-01-11T07:06:49.734Z,34.60
2024-01-11T07:07:49.911Z,34.50
2024-01-11T07:08:50.213Z,35.30
2024-01-11T07:09:50.477Z,35.70
2024-01-11T07:10:52.051Z,35.30
2024-01-11T07:11:51.197Z,36.00
2024-01-11T07:12:51.335Z,36.20
2024-01-11T07:13:51.630Z,36.00
2024-01-11T07:14:51.836Z,36.40
2024-01-11T07:15:52.205Z,36.30
2024-01-11T07:16:52.385Z,36.40
2024-01-11T07:17:52.973Z,36.60
2024-01-11T07:18:53.165Z,37.20
2024-01-11T07:19:53.226Z,36.60
2024-01-11T07:20:53.604Z,37.50
2024-01-11T07:21:53.824Z,37.40
2024-01-11T07:22:54.030Z,36.70
2024-01-11T07:23:54.341Z,36.70
2024-01-11T07:24:54.715Z,38.00
2024-01-11T07:25:55.009Z,36.70
2024-01-11T07:26:55.638Z,37.70
2024-01-11T07:27:55.664Z,37.40
2024-01-11T07:28:56.088Z,36.30
2024-01-11T07:29:56.391Z,36.90
2024-01-11T07:30:56.575Z,37.70
2024-01-11T07:31:57.156Z,37.70
2024-01-11T07:32:57.428Z,37.50
2024-01-11T07:33:57.505Z,37.10
2024-01-11T07:34:58.160Z,35.90
2024-01-11T07:35:58.106Z,36.50
2024-01-11T07:36:58.335Z,37.80
2024-01-11T07:37:58.757Z,39.30
2024-01-11T07:38:58.894Z,37.30
2024-01-11T07:39:59.285Z,37.50
2024-01-11T07:40:59.619Z,37.40
2024-01-11T07:41:59.836Z,37.50
2024-01-11T07:43:00.016Z,36.90
2024-01-11T07:44:00.338Z,36.20
2024-01-11T07:45:00.681Z,37.70
2024-01-11T07:46:00.923Z,37.60
2024-01-11T07:47:02.463Z,37.00
2024-01-11T07:48:01.474Z,37.90
2024-01-11T07:49:01.828Z,37.30
2024-01-11T07:50:02.054Z,40.20
2024-01-11T07:51:02.284Z,38.90
2024-01-11T07:52:02.515Z,40.00
2024-01-11T07:53:02.824Z,39.70
2024-01-11T07:54:02.958Z,39.00
2024-01-11T07:55:03.313Z,38.20
2024-01-11T07:56:03.538Z,38.70
2024-01-11T07:57:03.836Z,37.70
2024-01-11T07:58:04.158Z,37.90
2024-01-11T07:59:04.599Z,37.30
2024-01-11T08:00:04.891Z,37.30
2024-01-11T08:01:05.106Z,38.30
2024-01-11T08:02:05.490Z,36.70
2024-01-11T08:03:05.727Z,36.00
2024-01-11T08:04:06.061Z,37.10
2024-01-11T08:05:06.374Z,36.50
2024-01-11T08:06:06.494Z,36.70
2024-01-11T08:07:06.706Z,36.70
2024-01-11T08:08:06.977Z,37.30
2024-01-11T08:09:07.272Z,37.40
2024-01-11T08:10:07.682Z,37.20
2024-01-11T08:11:07.916Z,37.10
2024-01-11T08:12:08.187Z,36.90
2024-01-11T08:13:08.529Z,37.30
2024-01-11T08:14:08.752Z,36.40
2024-01-11T08:15:09.002Z,37.90
2024-01-11T08:16:09.294Z,37.60
2024-01-11T08:17:09.690Z,37.50
2024-01-11T08:18:10.003Z,37.60
2024-01-11T08:19:10.239Z,37.30
2024-01-11T08:20:10.459Z,38.10
2024-01-11T08:21:10.713Z,36.80
2024-01-11T08:22:10.894Z,37.60
2024-01-11T08:23:11.848Z,38.50
2024-01-11T08:24:11.563Z,37.60
2024-01-11T08:25:11.775Z,39.00
2024-01-11T08:26:12.135Z,37.70
2024-01-11T08:27:12.452Z,37.50
2024-01-11T08:28:12.918Z,37.60
2024-01-11T08:29:13.138Z,38.80
2024-01-11T08:30:13.435Z,37.50
2024-01-11T08:31:13.660Z,39.30
2024-01-11T08:32:23.404Z,38.80
2024-01-11T08:33:15.602Z,38.30
2024-01-11T08:34:14.515Z,38.00
2024-01-11T08:35:14.802Z,38.70
2024-01-11T08:36:15.204Z,38.20
2024-01-11T08:37:15.349Z,39.30
2024-01-11T08:38:15.641Z,38.40
2024-01-11T08:39:15.852Z,38.90
2024-01-11T08:40:16.081Z,38.10
2024-01-11T08:41:16.420Z,38.10
2024-01-11T08:42:16.579Z,37.50
2024-01-11T08:43:16.919Z,38.00
2024-01-11T08:44:17.095Z,37.40
2024-01-11T08:45:17.446Z,38.00
2024-01-11T08:46:17.739Z,38.70
2024-01-11T08:47:18.159Z,37.90
2024-01-11T08:48:19.067Z,36.50
2024-01-11T08:49:18.753Z,37.40
2024-01-11T08:50:22.548Z,38.00
2024-01-11T08:51:19.243Z,37.10
2024-01-11T08:52:19.954Z,37.40
2024-01-11T08:53:19.912Z,38.20
2024-01-11T08:54:21.010Z,37.60
2024-01-11T08:55:20.350Z,37.00
2024-01-11T08:56:20.765Z,39.30
2024-01-11T08:57:21.000Z,39.10
2024-01-11T08:58:21.206Z,38.40
2024-01-11T08:59:21.523Z,38.50
2024-01-11T09:00:21.751Z,38.40
2024-01-11T09:01:22.016Z,37.40
2024-01-11T09:02:25.027Z,37.10
2024-01-11T09:03:23.747Z,37.40
2024-01-11T09:04:22.762Z,37.70
2024-01-11T09:05:23.131Z,37.00
2024-01-11T09:06:23.331Z,37.70
2024-01-11T09:07:23.656Z,37.70
2024-01-11T09:08:24.069Z,37.80
2024-01-11T09:09:24.256Z,36.30
2024-01-11T09:10:24.586Z,37.50
2024-01-11T09:11:25.054Z,36.40
2024-01-11T09:12:25.183Z,38.20
2024-01-11T09:13:25.567Z,38.50
2024-01-11T09:14:25.833Z,39.00
2024-01-11T09:15:26.174Z,38.60
2024-01-11T09:16:26.380Z,36.40
2024-01-11T09:17:26.836Z,37.60
2024-01-11T09:18:27.075Z,37.60
2024-01-11T09:19:27.384Z,38.40
2024-01-11T09:20:27.590Z,37.60
2024-01-11T09:21:27.757Z,38.00
2024-01-11T09:22:28.484Z,37.90
2024-01-11T09:23:28.458Z,36.50
2024-01-11T09:24:32.963Z,36.70
2024-01-11T09:25:29.863Z,37.60
2024-01-11T09:26:29.273Z,36.80
2024-01-11T09:27:29.519Z,36.40
2024-01-11T09:28:29.741Z,37.90
2024-01-11T09:29:29.998Z,39.70
2024-01-11T09:30:30.391Z,37.90
2024-01-11T09:31:31.013Z,38.20
2024-01-11T09:32:30.998Z,38.50
2024-01-11T09:33:31.257Z,37.60
2024-01-11T09:34:31.430Z,37.10
2024-01-11T09:35:31.670Z,38.90
2024-01-11T09:36:31.947Z,39.90
2024-01-11T09:37:32.214Z,42.10
2024-01-11T09:38:32.747Z,39.30
2024-01-11T09:39:32.858Z,39.60
2024-01-11T09:40:33.116Z,38.80
2024-01-11T09:41:33.409Z,41.90
2024-01-11T09:42:33.617Z,41.20
2024-01-11T09:43:34.033Z,40.90
2024-01-11T09:44:34.282Z,40.70
2024-01-11T09:45:34.459Z,40.30
2024-01-11T09:46:34.740Z,38.50
2024-01-11T09:47:35.023Z,38.00
2024-01-11T09:48:35.203Z,41.90
2024-01-11T09:49:35.507Z,41.50
2024-01-11T09:50:35.821Z,41.20
2024-01-11T09:51:35.970Z,39.20
2024-01-11T09:52:37.482Z,39.60
2024-01-11T09:53:36.728Z,38.40
2024-01-11T09:54:36.941Z,38.30
2024-01-11T09:55:37.193Z,37.40
2024-01-11T09:56:37.521Z,36.50
2024-01-11T09:57:37.814Z,36.80
2024-01-11T09:58:37.924Z,37.10
2024-01-11T09:59:38.482Z,37.00
2024-01-11T10:00:38.613Z,39.20
2024-01-11T10:01:38.831Z,38.30
2024-01-11T10:02:39.134Z,38.20
2024-01-11T10:03:39.382Z,38.60
2024-01-11T10:04:39.527Z,38.90
2024-01-11T10:05:40.131Z,40.90
2024-01-11T10:06:40.201Z,43.00
2024-01-11T10:07:40.433Z,38.10
2024-01-11T10:08:40.795Z,37.20
2024-01-11T10:09:40.970Z,37.00
2024-01-11T10:10:41.756Z,36.20
2024-01-11T10:11:42.241Z,36.20
2024-01-11T10:12:41.771Z,35.90
2024-01-11T10:13:42.135Z,37.90
2024-01-11T10:14:42.481Z,38.90
2024-01-11T10:15:42.736Z,39.50
2024-01-11T10:16:43.079Z,38.50
2024-01-11T10:17:43.468Z,37.50
2024-01-11T10:18:43.909Z,36.80
2024-01-11T10:19:43.907Z,37.40
2024-01-11T10:20:44.173Z,38.00
2024-01-11T10:21:44.303Z,38.80
2024-01-11T10:22:44.533Z,34.80
2024-01-11T10:23:44.859Z,36.20
2024-01-11T10:24:45.085Z,36.00
2024-01-11T10:25:45.436Z,37.50
2024-01-11T10:26:45.698Z,37.00
2024-01-11T10:27:45.923Z,37.50
2024-01-11T10:28:46.180Z,37.20
2024-01-11T10:29:46.507Z,37.20
2024-01-11T10:30:46.816Z,36.50
2024-01-11T10:31:46.984Z,36.40
2024-01-11T10:32:47.505Z,36.90
2024-01-11T10:33:47.649Z,36.50
2024-01-11T10:34:47.734Z,36.10
2024-01-11T10:35:48.148Z,36.20
2024-01-11T10:36:48.364Z,36.20
2024-01-11T10:37:48.633Z,37.30
2024-01-11T10:38:49.011Z,36.10
2024-01-11T10:39:49.248Z,36.10
2024-01-11T10:40:49.466Z,36.40
2024-01-11T10:41:49.781Z,36.70
2024-01-11T10:42:51.136Z,37.00
2024-01-11T10:43:50.511Z,37.80
2024-01-11T10:44:50.729Z,37.30
2024-01-11T10:45:50.956Z,37.80
2024-01-11T10:46:51.220Z,36.00
2024-01-11T10:47:51.762Z,36.00
2024-01-11T10:48:51.910Z,36.00
2024-01-11T10:49:52.117Z,37.70
2024-01-11T10:50:52.432Z,37.60
2024-01-11T10:51:52.817Z,38.00
2024-01-11T10:52:53.044Z,38.20
2024-01-11T10:53:53.441Z,38.30
2024-01-11T10:54:53.606Z,38.60
2024-01-11T10:55:54.017Z,37.60
2024-01-11T10:56:54.263Z,37.80
2024-01-11T10:57:54.524Z,38.50
2024-01-11T10:58:54.704Z,37.50
2024-01-11T10:59:55.128Z,38.50
2024-01-11T11:00:55.265Z,38.10
2024-01-11T11:01:55.649Z,38.70
2024-01-11T11:02:55.994Z,38.60
2024-01-11T11:03:56.275Z,38.00
2024-01-11T11:04:56.419Z,38.40
2024-01-11T11:05:56.861Z,38.50
2024-01-11T11:06:57.479Z,37.80
2024-01-11T11:07:57.517Z,38.30
2024-01-11T11:08:57.660Z,39.40
2024-01-11T11:09:58.005Z,38.80
2024-01-11T11:10:58.414Z,38.30
2024-01-11T11:11:58.750Z,38.20
2024-01-11T11:12:59.063Z,39.40
2024-01-11T11:13:59.246Z,40.10
2024-01-11T11:14:59.553Z,40.00
2024-01-11T11:16:02.106Z,38.30
2024-01-11T11:17:00.411Z,38.10
2024-01-11T11:18:00.772Z,38.40
2024-01-11T11:19:00.862Z,39.80
2024-01-11T11:20:01.035Z,38.00
2024-01-11T11:21:01.403Z,38.30
2024-01-11T11:22:01.667Z,37.70
2024-01-11T11:23:01.911Z,39.00
2024-01-11T11:24:02.131Z,37.40
2024-01-11T11:25:02.345Z,38.70
2024-01-11T11:26:02.685Z,39.20
2024-01-11T11:27:02.847Z,38.40
2024-01-11T11:28:03.183Z,38.60
2024-01-11T11:29:03.480Z,39.30
2024-01-11T11:30:03.669Z,37.70
2024-01-11T11:31:03.919Z,39.10
2024-01-11T11:32:04.160Z,38.70
2024-01-11T11:33:04.671Z,40.30
2024-01-11T11:34:04.904Z,41.00
2024-01-11T11:35:04.987Z,39.10
2024-01-11T11:36:05.243Z,38.80
2024-01-11T11:37:05.549Z,39.70
2024-01-11T11:38:05.778Z,39.20
2024-01-11T11:39:05.990Z,38.20
2024-01-11T11:40:06.439Z,39.10
2024-01-11T11:41:06.593Z,37.10
2024-01-11T11:42:06.962Z,37.90
2024-01-11T11:43:07.192Z,39.00
2024-01-11T11:44:07.572Z,37.80
2024-01-11T11:45:07.741Z,38.30
2024-01-11T11:46:08.054Z,38.10
2024-01-11T11:47:08.420Z,38.30
2024-01-11T11:48:08.844Z,38.00
2024-01-11T11:49:09.026Z,38.30
2024-01-11T11:50:09.484Z,38.50
2024-01-11T11:51:09.594Z,38.60
2024-01-11T11:52:09.821Z,37.50
2024-01-11T11:53:10.279Z,38.10
2024-01-11T11:54:10.267Z,37.70
2024-01-11T11:55:10.637Z,38.10
2024-01-11T11:56:11.146Z,38.80
2024-01-11T11:57:11.233Z,37.70
2024-01-11T11:58:11.582Z,37.50
2024-01-11T11:59:11.833Z,38.40
2024-01-11T12:00:12.071Z,38.30
2024-01-11T12:01:12.372Z,38.00
2024-01-11T12:02:12.600Z,37.90
2024-01-11T12:03:12.832Z,38.50
2024-01-11T12:04:13.204Z,37.90
2024-01-11T12:05:13.619Z,37.60
2024-01-11T12:06:13.787Z,38.90
2024-01-11T12:07:13.971Z,37.50
2024-01-11T12:08:14.373Z,38.60
2024-01-11T12:09:14.569Z,39.30
2024-01-11T12:10:14.904Z,39.70
2024-01-11T12:11:15.097Z,37.40
2024-01-11T12:12:16.470Z,39.40
2024-01-11T12:13:15.654Z,36.60
2024-01-11T12:14:16.006Z,38.30
2024-01-11T12:15:16.241Z,37.80
2024-01-11T12:16:16.473Z,38.70
2024-01-11T12:17:16.681Z,38.90
2024-01-11T12:18:17.231Z,38.80
2024-01-11T12:19:17.318Z,40.60
2024-01-11T12:20:17.786Z,40.60
2024-01-11T12:21:17.953Z,39.10
2024-01-11T12:22:18.259Z,40.10
2024-01-11T12:23:18.623Z,40.30
2024-01-11T12:24:19.018Z,40.40
2024-01-11T12:25:19.291Z,39.90
2024-01-11T12:26:19.538Z,40.70
2024-01-11T12:27:19.759Z,39.30
2024-01-11T12:28:20.288Z,40.10
2024-01-11T12:29:20.366Z,39.00
2024-01-11T12:30:20.637Z,39.70
2024-01-11T12:31:20.975Z,38.10
2024-01-11T12:32:21.218Z,37.90
2024-01-11T12:33:21.508Z,37.90
2024-01-11T12:34:21.850Z,38.50
2024-01-11T12:35:22.075Z,37.80
2024-01-11T12:36:22.434Z,38.60
2024-01-11T12:37:22.697Z,38.30
2024-01-11T12:38:23.015Z,37.60
2024-01-11T12:39:23.234Z,37.20
2024-01-11T12:40:23.452Z,37.30
2024-01-11T12:41:23.868Z,37.60
2024-01-11T12:42:23.938Z,37.90
2024-01-11T12:43:24.253Z,38.70
2024-01-11T12:44:24.719Z,40.00
2024-01-11T12:45:24.897Z,39.30
2024-01-11T12:46:25.244Z,39.50
2024-01-11T12:47:25.465Z,39.10
2024-01-11T12:48:26.069Z,39.30
2024-01-11T12:49:26.498Z,39.90
2024-01-11T12:50:28.104Z,40.00
2024-01-11T12:51:26.717Z,39.20
2024-01-11T12:52:26.866Z,39.10
2024-01-11T12:53:27.233Z,38.30
2024-01-11T12:54:27.553Z,37.60
2024-01-11T12:55:27.821Z,38.20
2024-01-11T12:56:28.222Z,38.30